sensor_id;sensor_type;location;lat;lon;timestamp;P1;durP1;ratioP1;P2;durP2;ratioP2
76606;SDS011;65498;50.916;4.698;2023-05-10T00:01:32;10.55;;;3.33;;
76606;SDS011;65498;50.916;4.698;2023-05-10T00:03:59;13.30;;;4.30;;
76606;SDS011;65498;50.916;4.698;2023-05-10T00:06:27;10.18;;;4.37;;
76606;SDS011;65498;50.916;4.698;2023-05-10T00:08:54;9.58;;;3.95;;
76606;SDS011;65498;50.916;4.698;2023-05-10T00:11:22;8.60;;;3.27;;
76606;SDS011;65498;50.916;4.698;2023-05-10T00:13:50;10.53;;;4.17;;
76606;SDS011;65498;50.916;4.698;2023-05-10T00:16:17;10.82;;;4.28;;
76606;SDS011;65498;50.916;4.698;2023-05-10T00:18:45;9.35;;;3.80;;
76606;SDS011;65498;50.916;4.698;2023-05-10T00:21:12;12.90;;;3.95;;
76606;SDS011;65498;50.916;4.698;2023-05-10T00:23:40;8.73;;;3.75;;
76606;SDS011;65498;50.916;4.698;2023-05-10T00:26:07;9.00;;;3.77;;
76606;SDS011;65498;50.916;4.698;2023-05-10T00:28:35;12.55;;;4.25;;
76606;SDS011;65498;50.916;4.698;2023-05-10T00:31:02;10.48;;;3.95;;
76606;SDS011;65498;50.916;4.698;2023-05-10T00:33:30;11.22;;;3.75;;
76606;SDS011;65498;50.916;4.698;2023-05-10T00:35:57;10.20;;;3.92;;
76606;SDS011;65498;50.916;4.698;2023-05-10T00:41:12;10.88;;;3.47;;
76606;SDS011;65498;50.916;4.698;2023-05-10T00:43:39;8.95;;;3.50;;
76606;SDS011;65498;50.916;4.698;2023-05-10T00:46:07;12.43;;;3.60;;
76606;SDS011;65498;50.916;4.698;2023-05-10T00:48:35;7.80;;;3.40;;
76606;SDS011;65498;50.916;4.698;2023-05-10T00:51:02;11.53;;;3.75;;
76606;SDS011;65498;50.916;4.698;2023-05-10T00:53:30;8.13;;;3.37;;
76606;SDS011;65498;50.916;4.698;2023-05-10T00:55:58;9.85;;;3.60;;
76606;SDS011;65498;50.916;4.698;2023-05-10T00:58:27;7.87;;;3.47;;
76606;SDS011;65498;50.916;4.698;2023-05-10T01:00:56;9.30;;;3.50;;
76606;SDS011;65498;50.916;4.698;2023-05-10T01:03:25;8.45;;;4.03;;
76606;SDS011;65498;50.916;4.698;2023-05-10T01:05:52;11.45;;;4.10;;
76606;SDS011;65498;50.916;4.698;2023-05-10T01:08:21;8.58;;;3.42;;
76606;SDS011;65498;50.916;4.698;2023-05-10T01:10:49;7.53;;;3.25;;
76606;SDS011;65498;50.916;4.698;2023-05-10T01:13:18;8.40;;;3.47;;
76606;SDS011;65498;50.916;4.698;2023-05-10T01:15:48;11.00;;;3.52;;
76606;SDS011;65498;50.916;4.698;2023-05-10T01:18:16;8.03;;;3.85;;
76606;SDS011;65498;50.916;4.698;2023-05-10T01:20:48;11.38;;;3.98;;
76606;SDS011;65498;50.916;4.698;2023-05-10T01:23:31;8.28;;;3.50;;
76606;SDS011;65498;50.916;4.698;2023-05-10T01:34:39;9.00;;;3.12;;
76606;SDS011;65498;50.916;4.698;2023-05-10T01:37:06;7.90;;;3.58;;
76606;SDS011;65498;50.916;4.698;2023-05-10T01:39:57;8.70;;;3.10;;
76606;SDS011;65498;50.916;4.698;2023-05-10T01:42:36;7.45;;;3.12;;
76606;SDS011;65498;50.916;4.698;2023-05-10T01:47:48;8.33;;;3.80;;
76606;SDS011;65498;50.916;4.698;2023-05-10T01:50:18;9.83;;;3.60;;
76606;SDS011;65498;50.916;4.698;2023-05-10T01:52:53;10.10;;;3.80;;
76606;SDS011;65498;50.916;4.698;2023-05-10T01:55:23;7.78;;;3.12;;
76606;SDS011;65498;50.916;4.698;2023-05-10T01:58:03;7.90;;;3.40;;
76606;SDS011;65498;50.916;4.698;2023-05-10T02:00:40;8.28;;;3.25;;
76606;SDS011;65498;50.916;4.698;2023-05-10T02:03:09;8.73;;;3.25;;
76606;SDS011;65498;50.916;4.698;2023-05-10T02:05:38;7.70;;;3.00;;
76606;SDS011;65498;50.916;4.698;2023-05-10T02:08:07;9.03;;;3.20;;
76606;SDS011;65498;50.916;4.698;2023-05-10T02:10:35;9.93;;;3.62;;
76606;SDS011;65498;50.916;4.698;2023-05-10T02:13:05;6.30;;;2.98;;
76606;SDS011;65498;50.916;4.698;2023-05-10T02:15:35;7.83;;;3.35;;
76606;SDS011;65498;50.916;4.698;2023-05-10T02:18:05;7.65;;;3.02;;
76606;SDS011;65498;50.916;4.698;2023-05-10T02:20:34;7.53;;;3.58;;
76606;SDS011;65498;50.916;4.698;2023-05-10T02:23:03;9.10;;;3.50;;
76606;SDS011;65498;50.916;4.698;2023-05-10T02:25:31;6.53;;;3.15;;
76606;SDS011;65498;50.916;4.698;2023-05-10T02:28:01;7.03;;;3.60;;
76606;SDS011;65498;50.916;4.698;2023-05-10T02:30:31;9.58;;;3.25;;
76606;SDS011;65498;50.916;4.698;2023-05-10T02:33:00;8.98;;;3.37;;
76606;SDS011;65498;50.916;4.698;2023-05-10T02:35:30;7.00;;;3.20;;
76606;SDS011;65498;50.916;4.698;2023-05-10T02:38:00;9.48;;;3.47;;
76606;SDS011;65498;50.916;4.698;2023-05-10T02:40:28;7.17;;;3.10;;
76606;SDS011;65498;50.916;4.698;2023-05-10T02:42:56;8.18;;;3.40;;
76606;SDS011;65498;50.916;4.698;2023-05-10T02:45:27;7.60;;;3.20;;
76606;SDS011;65498;50.916;4.698;2023-05-10T02:47:56;8.05;;;3.12;;
76606;SDS011;65498;50.916;4.698;2023-05-10T02:50:25;7.08;;;3.10;;
76606;SDS011;65498;50.916;4.698;2023-05-10T02:52:56;8.15;;;3.50;;
76606;SDS011;65498;50.916;4.698;2023-05-10T02:55:25;7.80;;;2.98;;
76606;SDS011;65498;50.916;4.698;2023-05-10T02:57:58;7.65;;;2.98;;
76606;SDS011;65498;50.916;4.698;2023-05-10T03:02:54;8.15;;;3.17;;
76606;SDS011;65498;50.916;4.698;2023-05-10T03:05:21;6.87;;;2.98;;
76606;SDS011;65498;50.916;4.698;2023-05-10T03:07:49;9.98;;;3.90;;
76606;SDS011;65498;50.916;4.698;2023-05-10T03:10:17;6.80;;;2.98;;
76606;SDS011;65498;50.916;4.698;2023-05-10T03:16:01;7.08;;;3.60;;
76606;SDS011;65498;50.916;4.698;2023-05-10T03:21:13;8.63;;;3.17;;
76606;SDS011;65498;50.916;4.698;2023-05-10T03:23:50;6.72;;;3.72;;
76606;SDS011;65498;50.916;4.698;2023-05-10T03:26:23;8.05;;;3.37;;
76606;SDS011;65498;50.916;4.698;2023-05-10T03:28:51;6.58;;;3.40;;
76606;SDS011;65498;50.916;4.698;2023-05-10T03:31:20;6.60;;;3.17;;
76606;SDS011;65498;50.916;4.698;2023-05-10T03:33:49;8.10;;;3.50;;
76606;SDS011;65498;50.916;4.698;2023-05-10T03:36:17;8.85;;;3.52;;
76606;SDS011;65498;50.916;4.698;2023-05-10T03:38:45;7.83;;;3.80;;
76606;SDS011;65498;50.916;4.698;2023-05-10T03:41:13;8.08;;;3.27;;
76606;SDS011;65498;50.916;4.698;2023-05-10T03:43:40;6.40;;;3.10;;
76606;SDS011;65498;50.916;4.698;2023-05-10T03:46:08;6.97;;;3.77;;
76606;SDS011;65498;50.916;4.698;2023-05-10T03:48:36;8.20;;;3.47;;
76606;SDS011;65498;50.916;4.698;2023-05-10T03:51:03;8.38;;;3.55;;
76606;SDS011;65498;50.916;4.698;2023-05-10T03:53:31;6.62;;;2.70;;
76606;SDS011;65498;50.916;4.698;2023-05-10T03:55:58;8.70;;;3.65;;
76606;SDS011;65498;50.916;4.698;2023-05-10T03:58:26;8.05;;;3.62;;
76606;SDS011;65498;50.916;4.698;2023-05-10T04:00:53;7.40;;;3.50;;
76606;SDS011;65498;50.916;4.698;2023-05-10T04:03:21;6.17;;;3.12;;
76606;SDS011;65498;50.916;4.698;2023-05-10T04:05:49;7.40;;;3.50;;
76606;SDS011;65498;50.916;4.698;2023-05-10T04:08:19;7.12;;;3.30;;
76606;SDS011;65498;50.916;4.698;2023-05-10T04:10:47;7.47;;;3.42;;
76606;SDS011;65498;50.916;4.698;2023-05-10T04:13:14;9.35;;;3.47;;
76606;SDS011;65498;50.916;4.698;2023-05-10T04:15:42;6.58;;;3.22;;
76606;SDS011;65498;50.916;4.698;2023-05-10T04:18:10;7.20;;;3.55;;
76606;SDS011;65498;50.916;4.698;2023-05-10T04:20:37;6.42;;;3.17;;
76606;SDS011;65498;50.916;4.698;2023-05-10T04:23:05;6.47;;;3.17;;
76606;SDS011;65498;50.916;4.698;2023-05-10T04:25:33;6.53;;;3.10;;
76606;SDS011;65498;50.916;4.698;2023-05-10T04:28:01;7.65;;;3.27;;
76606;SDS011;65498;50.916;4.698;2023-05-10T04:30:29;7.42;;;3.58;;
76606;SDS011;65498;50.916;4.698;2023-05-10T04:32:56;6.53;;;3.10;;
76606;SDS011;65498;50.916;4.698;2023-05-10T04:35:24;7.85;;;3.35;;
76606;SDS011;65498;50.916;4.698;2023-05-10T04:37:52;8.43;;;3.22;;
76606;SDS011;65498;50.916;4.698;2023-05-10T04:40:19;7.90;;;3.65;;
76606;SDS011;65498;50.916;4.698;2023-05-10T04:42:47;7.05;;;3.45;;
76606;SDS011;65498;50.916;4.698;2023-05-10T04:45:14;8.13;;;3.70;;
76606;SDS011;65498;50.916;4.698;2023-05-10T04:47:42;7.25;;;3.30;;
76606;SDS011;65498;50.916;4.698;2023-05-10T04:50:09;6.87;;;3.42;;
76606;SDS011;65498;50.916;4.698;2023-05-10T04:55:24;6.85;;;3.25;;
76606;SDS011;65498;50.916;4.698;2023-05-10T04:57:52;6.55;;;3.17;;
76606;SDS011;65498;50.916;4.698;2023-05-10T05:00:22;9.85;;;3.95;;
76606;SDS011;65498;50.916;4.698;2023-05-10T05:02:50;7.05;;;3.58;;
76606;SDS011;65498;50.916;4.698;2023-05-10T05:05:18;8.75;;;3.25;;
76606;SDS011;65498;50.916;4.698;2023-05-10T05:07:45;7.47;;;3.95;;
76606;SDS011;65498;50.916;4.698;2023-05-10T05:10:13;8.93;;;3.62;;
76606;SDS011;65498;50.916;4.698;2023-05-10T05:12:40;7.10;;;3.20;;
76606;SDS011;65498;50.916;4.698;2023-05-10T05:15:08;7.50;;;3.50;;
76606;SDS011;65498;50.916;4.698;2023-05-10T05:17:36;6.30;;;3.50;;
76606;SDS011;65498;50.916;4.698;2023-05-10T05:20:04;7.20;;;3.62;;
76606;SDS011;65498;50.916;4.698;2023-05-10T05:22:32;7.10;;;3.77;;
76606;SDS011;65498;50.916;4.698;2023-05-10T05:25:00;10.65;;;4.15;;
76606;SDS011;65498;50.916;4.698;2023-05-10T05:27:29;7.50;;;3.85;;
76606;SDS011;65498;50.916;4.698;2023-05-10T05:29:57;8.45;;;3.77;;
76606;SDS011;65498;50.916;4.698;2023-05-10T05:32:25;7.58;;;3.22;;
76606;SDS011;65498;50.916;4.698;2023-05-10T05:34:52;7.10;;;3.75;;
76606;SDS011;65498;50.916;4.698;2023-05-10T05:37:20;8.48;;;3.55;;
76606;SDS011;65498;50.916;4.698;2023-05-10T05:39:48;7.42;;;3.40;;
76606;SDS011;65498;50.916;4.698;2023-05-10T05:42:16;8.40;;;3.67;;
76606;SDS011;65498;50.916;4.698;2023-05-10T05:44:44;8.75;;;3.75;;
76606;SDS011;65498;50.916;4.698;2023-05-10T05:47:11;6.00;;;3.08;;
76606;SDS011;65498;50.916;4.698;2023-05-10T05:49:39;7.28;;;3.10;;
76606;SDS011;65498;50.916;4.698;2023-05-10T05:52:07;7.45;;;3.55;;
76606;SDS011;65498;50.916;4.698;2023-05-10T05:54:34;8.18;;;3.33;;
76606;SDS011;65498;50.916;4.698;2023-05-10T05:57:02;8.23;;;4.53;;
76606;SDS011;65498;50.916;4.698;2023-05-10T05:59:29;7.45;;;3.27;;
76606;SDS011;65498;50.916;4.698;2023-05-10T06:01:57;8.70;;;3.87;;
76606;SDS011;65498;50.916;4.698;2023-05-10T06:04:24;6.45;;;3.10;;
76606;SDS011;65498;50.916;4.698;2023-05-10T06:06:52;7.47;;;3.60;;
76606;SDS011;65498;50.916;4.698;2023-05-10T06:09:19;7.42;;;3.50;;
76606;SDS011;65498;50.916;4.698;2023-05-10T06:11:47;8.58;;;3.47;;
76606;SDS011;65498;50.916;4.698;2023-05-10T06:14:14;6.80;;;3.40;;
76606;SDS011;65498;50.916;4.698;2023-05-10T06:16:42;7.17;;;3.67;;
76606;SDS011;65498;50.916;4.698;2023-05-10T06:19:09;9.08;;;4.30;;
76606;SDS011;65498;50.916;4.698;2023-05-10T06:21:37;9.28;;;4.55;;
76606;SDS011;65498;50.916;4.698;2023-05-10T06:24:05;7.67;;;4.17;;
76606;SDS011;65498;50.916;4.698;2023-05-10T06:26:33;11.10;;;4.28;;
76606;SDS011;65498;50.916;4.698;2023-05-10T06:29:00;9.00;;;3.83;;
76606;SDS011;65498;50.916;4.698;2023-05-10T06:31:28;8.90;;;4.00;;
76606;SDS011;65498;50.916;4.698;2023-05-10T06:33:55;8.53;;;4.15;;
76606;SDS011;65498;50.916;4.698;2023-05-10T06:36:23;9.08;;;3.75;;
76606;SDS011;65498;50.916;4.698;2023-05-10T06:38:52;10.60;;;3.98;;
76606;SDS011;65498;50.916;4.698;2023-05-10T06:41:19;8.28;;;3.83;;
76606;SDS011;65498;50.916;4.698;2023-05-10T06:43:47;10.23;;;3.83;;
76606;SDS011;65498;50.916;4.698;2023-05-10T06:46:14;7.05;;;3.67;;
76606;SDS011;65498;50.916;4.698;2023-05-10T06:48:42;8.38;;;4.00;;
76606;SDS011;65498;50.916;4.698;2023-05-10T06:51:10;9.58;;;3.92;;
76606;SDS011;65498;50.916;4.698;2023-05-10T06:53:37;7.75;;;3.45;;
76606;SDS011;65498;50.916;4.698;2023-05-10T06:56:05;8.20;;;3.85;;
76606;SDS011;65498;50.916;4.698;2023-05-10T06:58:32;6.78;;;3.37;;
76606;SDS011;65498;50.916;4.698;2023-05-10T07:01:03;6.55;;;3.50;;
76606;SDS011;65498;50.916;4.698;2023-05-10T07:03:31;10.53;;;3.62;;
76606;SDS011;65498;50.916;4.698;2023-05-10T07:06:02;7.10;;;3.40;;
76606;SDS011;65498;50.916;4.698;2023-05-10T07:08:31;7.62;;;3.62;;
76606;SDS011;65498;50.916;4.698;2023-05-10T07:11:00;7.83;;;3.85;;
76606;SDS011;65498;50.916;4.698;2023-05-10T07:15:59;7.35;;;3.52;;
76606;SDS011;65498;50.916;4.698;2023-05-10T07:18:28;7.15;;;3.42;;
76606;SDS011;65498;50.916;4.698;2023-05-10T07:20:56;7.42;;;3.60;;
76606;SDS011;65498;50.916;4.698;2023-05-10T07:23:24;7.85;;;3.70;;
76606;SDS011;65498;50.916;4.698;2023-05-10T07:25:51;7.28;;;3.70;;
76606;SDS011;65498;50.916;4.698;2023-05-10T07:28:19;7.78;;;3.40;;
76606;SDS011;65498;50.916;4.698;2023-05-10T07:30:47;7.92;;;3.85;;
76606;SDS011;65498;50.916;4.698;2023-05-10T07:33:14;8.28;;;3.77;;
76606;SDS011;65498;50.916;4.698;2023-05-10T07:35:42;8.75;;;4.05;;
76606;SDS011;65498;50.916;4.698;2023-05-10T07:38:10;7.80;;;3.70;;
76606;SDS011;65498;50.916;4.698;2023-05-10T07:40:38;7.53;;;3.75;;
76606;SDS011;65498;50.916;4.698;2023-05-10T07:43:06;6.90;;;3.22;;
76606;SDS011;65498;50.916;4.698;2023-05-10T07:45:34;8.85;;;3.40;;
76606;SDS011;65498;50.916;4.698;2023-05-10T07:48:01;6.92;;;3.22;;
76606;SDS011;65498;50.916;4.698;2023-05-10T07:50:29;7.60;;;3.58;;
76606;SDS011;65498;50.916;4.698;2023-05-10T07:52:56;8.05;;;3.72;;
76606;SDS011;65498;50.916;4.698;2023-05-10T07:55:24;8.85;;;3.40;;
76606;SDS011;65498;50.916;4.698;2023-05-10T07:57:52;8.03;;;3.77;;
76606;SDS011;65498;50.916;4.698;2023-05-10T08:00:19;8.53;;;3.65;;
76606;SDS011;65498;50.916;4.698;2023-05-10T08:02:47;7.45;;;3.90;;
76606;SDS011;65498;50.916;4.698;2023-05-10T08:05:15;7.25;;;3.75;;
76606;SDS011;65498;50.916;4.698;2023-05-10T08:07:42;8.25;;;3.65;;
76606;SDS011;65498;50.916;4.698;2023-05-10T08:10:10;6.83;;;3.33;;
76606;SDS011;65498;50.916;4.698;2023-05-10T08:12:38;7.40;;;3.50;;
76606;SDS011;65498;50.916;4.698;2023-05-10T08:15:06;7.40;;;3.65;;
76606;SDS011;65498;50.916;4.698;2023-05-10T08:17:34;6.72;;;3.27;;
76606;SDS011;65498;50.916;4.698;2023-05-10T08:20:02;7.60;;;3.55;;
76606;SDS011;65498;50.916;4.698;2023-05-10T08:22:30;8.05;;;3.62;;
76606;SDS011;65498;50.916;4.698;2023-05-10T08:24:57;9.15;;;3.60;;
76606;SDS011;65498;50.916;4.698;2023-05-10T08:27:25;7.17;;;3.85;;
76606;SDS011;65498;50.916;4.698;2023-05-10T08:29:52;9.53;;;3.80;;
76606;SDS011;65498;50.916;4.698;2023-05-10T08:32:20;8.40;;;3.70;;
76606;SDS011;65498;50.916;4.698;2023-05-10T08:34:47;9.88;;;3.22;;
76606;SDS011;65498;50.916;4.698;2023-05-10T08:37:15;6.85;;;3.45;;
76606;SDS011;65498;50.916;4.698;2023-05-10T08:39:42;7.10;;;3.47;;
76606;SDS011;65498;50.916;4.698;2023-05-10T08:42:11;8.03;;;3.23;;
76606;SDS011;65498;50.916;4.698;2023-05-10T08:44:41;7.08;;;2.98;;
76606;SDS011;65498;50.916;4.698;2023-05-10T08:47:09;7.28;;;3.55;;
76606;SDS011;65498;50.916;4.698;2023-05-10T08:49:37;8.53;;;3.33;;
76606;SDS011;65498;50.916;4.698;2023-05-10T08:52:06;6.03;;;2.80;;
76606;SDS011;65498;50.916;4.698;2023-05-10T08:54:34;7.10;;;3.35;;
76606;SDS011;65498;50.916;4.698;2023-05-10T08:57:03;7.08;;;3.40;;
76606;SDS011;65498;50.916;4.698;2023-05-10T08:59:30;7.67;;;3.22;;
76606;SDS011;65498;50.916;4.698;2023-05-10T09:01:58;7.50;;;3.30;;
76606;SDS011;65498;50.916;4.698;2023-05-10T09:04:27;7.53;;;3.62;;
76606;SDS011;65498;50.916;4.698;2023-05-10T09:06:55;6.40;;;2.93;;
76606;SDS011;65498;50.916;4.698;2023-05-10T09:09:23;8.68;;;3.15;;
76606;SDS011;65498;50.916;4.698;2023-05-10T09:11:52;7.50;;;2.85;;
76606;SDS011;65498;50.916;4.698;2023-05-10T09:14:21;6.97;;;3.02;;
76606;SDS011;65498;50.916;4.698;2023-05-10T09:16:51;6.10;;;3.08;;
76606;SDS011;65498;50.916;4.698;2023-05-10T09:19:19;7.60;;;3.50;;
76606;SDS011;65498;50.916;4.698;2023-05-10T09:21:47;6.37;;;3.35;;
76606;SDS011;65498;50.916;4.698;2023-05-10T09:24:16;9.77;;;3.07;;
76606;SDS011;65498;50.916;4.698;2023-05-10T09:26:46;7.22;;;3.05;;
76606;SDS011;65498;50.916;4.698;2023-05-10T09:29:15;8.20;;;3.30;;
76606;SDS011;65498;50.916;4.698;2023-05-10T09:31:43;7.00;;;2.92;;
76606;SDS011;65498;50.916;4.698;2023-05-10T09:34:16;6.22;;;2.75;;
76606;SDS011;65498;50.916;4.698;2023-05-10T09:36:55;8.30;;;3.42;;
76606;SDS011;65498;50.916;4.698;2023-05-10T09:39:30;8.55;;;3.45;;
76606;SDS011;65498;50.916;4.698;2023-05-10T09:42:05;6.92;;;2.90;;
76606;SDS011;65498;50.916;4.698;2023-05-10T09:44:34;7.28;;;3.15;;
76606;SDS011;65498;50.916;4.698;2023-05-10T09:47:03;7.05;;;3.87;;
76606;SDS011;65498;50.916;4.698;2023-05-10T09:49:31;7.50;;;3.47;;
76606;SDS011;65498;50.916;4.698;2023-05-10T09:52:02;6.83;;;2.83;;
76606;SDS011;65498;50.916;4.698;2023-05-10T09:54:31;9.10;;;3.20;;
76606;SDS011;65498;50.916;4.698;2023-05-10T09:57:00;7.03;;;2.83;;
76606;SDS011;65498;50.916;4.698;2023-05-10T09:59:28;7.33;;;2.87;;
76606;SDS011;65498;50.916;4.698;2023-05-10T10:01:56;7.33;;;3.45;;
76606;SDS011;65498;50.916;4.698;2023-05-10T10:04:26;11.28;;;3.35;;
76606;SDS011;65498;50.916;4.698;2023-05-10T10:07:00;7.45;;;2.95;;
76606;SDS011;65498;50.916;4.698;2023-05-10T10:09:29;8.03;;;2.80;;
76606;SDS011;65498;50.916;4.698;2023-05-10T10:11:57;11.90;;;4.00;;
76606;SDS011;65498;50.916;4.698;2023-05-10T10:14:25;8.28;;;3.05;;
76606;SDS011;65498;50.916;4.698;2023-05-10T10:16:53;8.25;;;3.05;;
76606;SDS011;65498;50.916;4.698;2023-05-10T10:19:21;10.48;;;3.02;;
76606;SDS011;65498;50.916;4.698;2023-05-10T10:21:49;7.87;;;2.65;;
76606;SDS011;65498;50.916;4.698;2023-05-10T10:24:17;10.98;;;3.10;;
76606;SDS011;65498;50.916;4.698;2023-05-10T10:26:45;7.05;;;3.30;;
76606;SDS011;65498;50.916;4.698;2023-05-10T10:29:24;7.30;;;2.62;;
76606;SDS011;65498;50.916;4.698;2023-05-10T10:32:24;7.83;;;2.95;;
76606;SDS011;65498;50.916;4.698;2023-05-10T10:35:02;7.30;;;2.95;;
76606;SDS011;65498;50.916;4.698;2023-05-10T10:37:43;10.03;;;3.77;;
76606;SDS011;65498;50.916;4.698;2023-05-10T10:40:30;8.65;;;2.87;;
76606;SDS011;65498;50.916;4.698;2023-05-10T10:48:40;7.40;;;2.60;;
76606;SDS011;65498;50.916;4.698;2023-05-10T10:51:10;8.93;;;3.08;;
76606;SDS011;65498;50.916;4.698;2023-05-10T10:53:39;6.90;;;2.95;;
76606;SDS011;65498;50.916;4.698;2023-05-10T10:56:08;6.37;;;2.22;;
76606;SDS011;65498;50.916;4.698;2023-05-10T10:58:39;6.20;;;2.45;;
76606;SDS011;65498;50.916;4.698;2023-05-10T11:01:14;8.88;;;3.12;;
76606;SDS011;65498;50.916;4.698;2023-05-10T11:06:34;7.10;;;2.70;;
76606;SDS011;65498;50.916;4.698;2023-05-10T11:09:06;6.42;;;2.87;;
76606;SDS011;65498;50.916;4.698;2023-05-10T11:11:56;7.45;;;2.50;;
76606;SDS011;65498;50.916;4.698;2023-05-10T11:14:11;7.20;;;2.25;;
76606;SDS011;65498;50.916;4.698;2023-05-10T11:16:42;7.42;;;2.22;;
76606;SDS011;65498;50.916;4.698;2023-05-10T11:19:11;7.33;;;2.60;;
76606;SDS011;65498;50.916;4.698;2023-05-10T11:24:20;6.33;;;2.33;;
76606;SDS011;65498;50.916;4.698;2023-05-10T11:26:49;6.28;;;2.55;;
76606;SDS011;65498;50.916;4.698;2023-05-10T11:29:17;5.75;;;2.80;;
76606;SDS011;65498;50.916;4.698;2023-05-10T11:31:46;6.10;;;2.12;;
76606;SDS011;65498;50.916;4.698;2023-05-10T11:34:24;8.27;;;2.60;;
76606;SDS011;65498;50.916;4.698;2023-05-10T11:36:54;6.43;;;2.17;;
76606;SDS011;65498;50.916;4.698;2023-05-10T11:39:26;5.83;;;2.00;;
76606;SDS011;65498;50.916;4.698;2023-05-10T11:41:55;4.45;;;2.05;;
76606;SDS011;65498;50.916;4.698;2023-05-10T11:44:28;7.93;;;2.33;;
76606;SDS011;65498;50.916;4.698;2023-05-10T11:47:00;6.20;;;2.17;;
76606;SDS011;65498;50.916;4.698;2023-05-10T11:49:28;6.30;;;2.37;;
76606;SDS011;65498;50.916;4.698;2023-05-10T11:52:05;3.77;;;1.72;;
76606;SDS011;65498;50.916;4.698;2023-05-10T11:54:34;5.08;;;1.85;;
76606;SDS011;65498;50.916;4.698;2023-05-10T11:57:01;5.72;;;2.30;;
76606;SDS011;65498;50.916;4.698;2023-05-10T11:59:29;5.17;;;1.95;;
76606;SDS011;65498;50.916;4.698;2023-05-10T12:01:57;4.67;;;1.82;;
76606;SDS011;65498;50.916;4.698;2023-05-10T12:04:26;4.80;;;2.08;;
76606;SDS011;65498;50.916;4.698;2023-05-10T12:06:55;5.83;;;2.07;;
76606;SDS011;65498;50.916;4.698;2023-05-10T12:09:22;5.05;;;2.00;;
76606;SDS011;65498;50.916;4.698;2023-05-10T12:11:50;6.42;;;2.17;;
76606;SDS011;65498;50.916;4.698;2023-05-10T12:14:21;6.47;;;1.85;;
76606;SDS011;65498;50.916;4.698;2023-05-10T12:16:50;5.87;;;2.00;;
76606;SDS011;65498;50.916;4.698;2023-05-10T12:19:18;7.47;;;2.30;;
76606;SDS011;65498;50.916;4.698;2023-05-10T12:21:46;4.23;;;1.90;;
76606;SDS011;65498;50.916;4.698;2023-05-10T12:24:14;6.75;;;2.10;;
76606;SDS011;65498;50.916;4.698;2023-05-10T12:26:45;4.75;;;1.80;;
76606;SDS011;65498;50.916;4.698;2023-05-10T12:29:14;4.70;;;1.80;;
76606;SDS011;65498;50.916;4.698;2023-05-10T12:31:55;6.65;;;1.72;;
76606;SDS011;65498;50.916;4.698;2023-05-10T12:34:23;5.00;;;1.90;;
76606;SDS011;65498;50.916;4.698;2023-05-10T12:36:52;6.50;;;1.85;;
76606;SDS011;65498;50.916;4.698;2023-05-10T12:39:20;5.53;;;2.20;;
76606;SDS011;65498;50.916;4.698;2023-05-10T12:41:48;4.60;;;1.82;;
76606;SDS011;65498;50.916;4.698;2023-05-10T12:44:15;6.17;;;1.67;;
76606;SDS011;65498;50.916;4.698;2023-05-10T12:46:46;5.03;;;1.75;;
76606;SDS011;65498;50.916;4.698;2023-05-10T12:49:15;4.78;;;1.62;;
76606;SDS011;65498;50.916;4.698;2023-05-10T12:51:45;5.05;;;1.72;;
76606;SDS011;65498;50.916;4.698;2023-05-10T12:54:13;6.20;;;1.90;;
76606;SDS011;65498;50.916;4.698;2023-05-10T12:56:43;3.80;;;1.70;;
76606;SDS011;65498;50.916;4.698;2023-05-10T12:59:11;5.47;;;1.62;;
76606;SDS011;65498;50.916;4.698;2023-05-10T13:01:39;5.42;;;1.90;;
76606;SDS011;65498;50.916;4.698;2023-05-10T13:04:07;6.20;;;1.90;;
76606;SDS011;65498;50.916;4.698;2023-05-10T13:06:35;6.42;;;2.12;;
76606;SDS011;65498;50.916;4.698;2023-05-10T13:09:03;5.47;;;2.00;;
76606;SDS011;65498;50.916;4.698;2023-05-10T13:11:31;4.42;;;1.77;;
76606;SDS011;65498;50.916;4.698;2023-05-10T13:13:59;4.67;;;1.77;;
76606;SDS011;65498;50.916;4.698;2023-05-10T13:16:29;5.95;;;1.82;;
76606;SDS011;65498;50.916;4.698;2023-05-10T13:19:01;4.17;;;1.92;;
76606;SDS011;65498;50.916;4.698;2023-05-10T13:21:29;4.85;;;1.92;;
76606;SDS011;65498;50.916;4.698;2023-05-10T13:23:56;4.17;;;1.67;;
76606;SDS011;65498;50.916;4.698;2023-05-10T13:26:24;4.60;;;1.70;;
76606;SDS011;65498;50.916;4.698;2023-05-10T13:28:52;4.90;;;1.77;;
76606;SDS011;65498;50.916;4.698;2023-05-10T13:31:21;7.45;;;2.35;;
76606;SDS011;65498;50.916;4.698;2023-05-10T13:33:48;4.58;;;1.70;;
76606;SDS011;65498;50.916;4.698;2023-05-10T13:36:16;5.92;;;1.90;;
76606;SDS011;65498;50.916;4.698;2023-05-10T13:38:44;5.53;;;2.10;;
76606;SDS011;65498;50.916;4.698;2023-05-10T13:41:11;5.85;;;2.08;;
76606;SDS011;65498;50.916;4.698;2023-05-10T13:43:39;5.08;;;2.00;;
76606;SDS011;65498;50.916;4.698;2023-05-10T13:46:07;5.80;;;1.67;;
76606;SDS011;65498;50.916;4.698;2023-05-10T13:48:34;5.10;;;1.70;;
76606;SDS011;65498;50.916;4.698;2023-05-10T13:51:04;4.80;;;1.77;;
76606;SDS011;65498;50.916;4.698;2023-05-10T13:53:32;4.58;;;1.75;;
76606;SDS011;65498;50.916;4.698;2023-05-10T13:55:59;4.80;;;1.90;;
76606;SDS011;65498;50.916;4.698;2023-05-10T13:58:28;5.63;;;1.70;;
76606;SDS011;65498;50.916;4.698;2023-05-10T14:00:56;4.22;;;1.70;;
76606;SDS011;65498;50.916;4.698;2023-05-10T14:03:23;4.37;;;1.70;;
76606;SDS011;65498;50.916;4.698;2023-05-10T14:05:51;4.62;;;1.67;;
76606;SDS011;65498;50.916;4.698;2023-05-10T14:08:18;5.65;;;1.57;;
76606;SDS011;65498;50.916;4.698;2023-05-10T14:10:46;4.40;;;1.67;;
76606;SDS011;65498;50.916;4.698;2023-05-10T14:13:14;4.70;;;1.75;;
76606;SDS011;65498;50.916;4.698;2023-05-10T14:15:42;5.30;;;1.82;;
76606;SDS011;65498;50.916;4.698;2023-05-10T14:18:09;4.87;;;1.75;;
76606;SDS011;65498;50.916;4.698;2023-05-10T14:20:37;5.12;;;2.05;;
76606;SDS011;65498;50.916;4.698;2023-05-10T14:23:04;5.35;;;1.85;;
76606;SDS011;65498;50.916;4.698;2023-05-10T14:25:33;4.55;;;1.62;;
76606;SDS011;65498;50.916;4.698;2023-05-10T14:28:00;5.50;;;1.75;;
76606;SDS011;65498;50.916;4.698;2023-05-10T14:30:28;4.15;;;1.67;;
76606;SDS011;65498;50.916;4.698;2023-05-10T14:32:56;5.17;;;1.70;;
76606;SDS011;65498;50.916;4.698;2023-05-10T14:35:24;5.60;;;1.77;;
76606;SDS011;65498;50.916;4.698;2023-05-10T14:37:51;4.95;;;2.00;;
76606;SDS011;65498;50.916;4.698;2023-05-10T14:40:19;4.80;;;1.92;;
76606;SDS011;65498;50.916;4.698;2023-05-10T14:42:46;3.95;;;1.67;;
76606;SDS011;65498;50.916;4.698;2023-05-10T14:45:14;4.22;;;1.70;;
76606;SDS011;65498;50.916;4.698;2023-05-10T14:47:41;4.95;;;1.82;;
76606;SDS011;65498;50.916;4.698;2023-05-10T14:50:09;4.55;;;1.60;;
76606;SDS011;65498;50.916;4.698;2023-05-10T14:52:37;4.10;;;1.65;;
76606;SDS011;65498;50.916;4.698;2023-05-10T14:55:05;3.98;;;1.57;;
76606;SDS011;65498;50.916;4.698;2023-05-10T14:57:33;4.60;;;1.67;;
76606;SDS011;65498;50.916;4.698;2023-05-10T15:00:01;5.05;;;1.60;;
76606;SDS011;65498;50.916;4.698;2023-05-10T15:02:30;4.25;;;1.70;;
76606;SDS011;65498;50.916;4.698;2023-05-10T15:04:58;3.80;;;1.50;;
76606;SDS011;65498;50.916;4.698;2023-05-10T15:07:25;5.10;;;1.70;;
76606;SDS011;65498;50.916;4.698;2023-05-10T15:09:53;3.95;;;1.60;;
76606;SDS011;65498;50.916;4.698;2023-05-10T15:12:20;4.70;;;1.77;;
76606;SDS011;65498;50.916;4.698;2023-05-10T15:14:48;4.15;;;1.55;;
76606;SDS011;65498;50.916;4.698;2023-05-10T15:17:15;4.28;;;1.50;;
76606;SDS011;65498;50.916;4.698;2023-05-10T15:19:43;4.83;;;1.98;;
76606;SDS011;65498;50.916;4.698;2023-05-10T15:22:10;4.05;;;1.55;;
76606;SDS011;65498;50.916;4.698;2023-05-10T15:24:38;5.92;;;1.87;;
76606;SDS011;65498;50.916;4.698;2023-05-10T15:27:05;3.87;;;1.57;;
76606;SDS011;65498;50.916;4.698;2023-05-10T15:29:33;4.92;;;1.50;;
76606;SDS011;65498;50.916;4.698;2023-05-10T15:32:01;5.53;;;1.50;;
76606;SDS011;65498;50.916;4.698;2023-05-10T15:34:29;6.37;;;1.80;;